sensor_id;sensor_type;location;lat;lon;timestamp;temperature;humidity
15596;DHT22;7898;48.658;9.068;2022-10-22T00:00:43;12.70;99.90
15596;DHT22;7898;48.658;9.068;2022-10-22T00:03:10;12.80;99.90
15596;DHT22;7898;48.658;9.068;2022-10-22T00:05:37;12.80;99.90
15596;DHT22;7898;48.658;9.068;2022-10-22T00:08:05;12.70;99.90
15596;DHT22;7898;48.658;9.068;2022-10-22T00:10:32;12.70;99.90
15596;DHT22;7898;48.658;9.068;2022-10-22T00:12:59;12.80;99.90
15596;DHT22;7898;48.658;9.068;2022-10-22T00:15:26;12.80;99.90
15596;DHT22;7898;48.658;9.068;2022-10-22T00:17:53;12.80;99.90
15596;DHT22;7898;48.658;9.068;2022-10-22T00:20:20;12.80;99.90
15596;DHT22;7898;48.658;9.068;2022-10-22T00:22:47;12.80;99.90
15596;DHT22;7898;48.658;9.068;2022-10-22T00:25:16;12.70;99.90
15596;DHT22;7898;48.658;9.068;2022-10-22T00:27:43;12.70;99.90
15596;DHT22;7898;48.658;9.068;2022-10-22T00:30:10;12.70;99.90
15596;DHT22;7898;48.658;9.068;2022-10-22T00:32:37;12.60;99.90
15596;DHT22;7898;48.658;9.068;2022-10-22T00:35:05;12.60;99.90
15596;DHT22;7898;48.658;9.068;2022-10-22T00:37:32;12.60;99.90
15596;DHT22;7898;48.658;9.068;2022-10-22T00:39:59;12.60;99.90
15596;DHT22;7898;48.658;9.068;2022-10-22T00:42:27;12.60;99.90
15596;DHT22;7898;48.658;9.068;2022-10-22T00:45:09;12.50;99.90
15596;DHT22;7898;48.658;9.068;2022-10-22T00:47:42;12.60;99.90
15596;DHT22;7898;48.658;9.068;2022-10-22T00:50:13;12.50;99.90
15596;DHT22;7898;48.658;9.068;2022-10-22T00:52:44;12.50;99.90
15596;DHT22;7898;48.658;9.068;2022-10-22T00:55:12;12.50;99.90
15596;DHT22;7898;48.658;9.068;2022-10-22T00:57:41;12.50;99.90
15596;DHT22;7898;48.658;9.068;2022-10-22T01:00:10;12.50;99.90
15596;DHT22;7898;48.658;9.068;2022-10-22T01:02:37;12.10;99.90
15596;DHT22;7898;48.658;9.068;2022-10-22T01:05:04;12.50;99.90
15596;DHT22;7898;48.658;9.068;2022-10-22T01:07:37;12.50;99.90
15596;DHT22;7898;48.658;9.068;2022-10-22T01:10:09;12.50;99.90
15596;DHT22;7898;48.658;9.068;2022-10-22T01:12:43;12.50;99.90
15596;DHT22;7898;48.658;9.068;2022-10-22T01:15:19;12.50;99.90
15596;DHT22;7898;48.658;9.068;2022-10-22T01:17:54;12.60;99.90
15596;DHT22;7898;48.658;9.068;2022-10-22T01:20:45;12.70;99.90
15596;DHT22;7898;48.658;9.068;2022-10-22T01:23:27;13.10;99.90
15596;DHT22;7898;48.658;9.068;2022-10-22T01:26:04;12.70;99.90
15596;DHT22;7898;48.658;9.068;2022-10-22T01:28:53;12.70;99.90
15596;DHT22;7898;48.658;9.068;2022-10-22T01:31:24;12.70;99.90
15596;DHT22;7898;48.658;9.068;2022-10-22T01:33:56;12.70;99.90
15596;DHT22;7898;48.658;9.068;2022-10-22T01:36:25;12.70;99.90
15596;DHT22;7898;48.658;9.068;2022-10-22T01:38:53;12.60;99.90
15596;DHT22;7898;48.658;9.068;2022-10-22T01:41:21;12.10;99.90
15596;DHT22;7898;48.658;9.068;2022-10-22T01:43:49;12.60;99.90
15596;DHT22;7898;48.658;9.068;2022-10-22T01:46:17;12.60;99.90
15596;DHT22;7898;48.658;9.068;2022-10-22T01:48:54;12.60;99.90
15596;DHT22;7898;48.658;9.068;2022-10-22T01:51:33;12.60;99.90
15596;DHT22;7898;48.658;9.068;2022-10-22T01:54:12;12.50;99.90
15596;DHT22;7898;48.658;9.068;2022-10-22T01:56:54;12.50;99.90
15596;DHT22;7898;48.658;9.068;2022-10-22T01:59:32;12.60;99.90
15596;DHT22;7898;48.658;9.068;2022-10-22T02:02:04;12.50;99.90
15596;DHT22;7898;48.658;9.068;2022-10-22T02:04:41;12.50;99.90
15596;DHT22;7898;48.658;9.068;2022-10-22T02:07:12;12.40;99.90
15596;DHT22;7898;48.658;9.068;2022-10-22T02:09:40;12.40;99.90
15596;DHT22;7898;48.658;9.068;2022-10-22T02:12:10;12.40;99.90
15596;DHT22;7898;48.658;9.068;2022-10-22T02:14:42;12.40;99.90
15596;DHT22;7898;48.658;9.068;2022-10-22T02:17:12;12.40;99.90
15596;DHT22;7898;48.658;9.068;2022-10-22T02:19:45;12.40;99.90
15596;DHT22;7898;48.658;9.068;2022-10-22T02:22:13;12.40;99.90
15596;DHT22;7898;48.658;9.068;2022-10-22T02:24:40;12.40;99.90
15596;DHT22;7898;48.658;9.068;2022-10-22T02:27:11;12.40;99.90
15596;DHT22;7898;48.658;9.068;2022-10-22T02:29:46;12.40;99.90
15596;DHT22;7898;48.658;9.068;2022-10-22T02:32:19;12.40;99.90
15596;DHT22;7898;48.658;9.068;2022-10-22T02:34:48;12.40;99.90
15596;DHT22;7898;48.658;9.068;2022-10-22T02:37:17;12.30;99.90
15596;DHT22;7898;48.658;9.068;2022-10-22T02:39:45;12.30;99.90
15596;DHT22;7898;48.658;9.068;2022-10-22T02:42:12;12.30;99.90
15596;DHT22;7898;48.658;9.068;2022-10-22T02:44:39;12.30;99.90
15596;DHT22;7898;48.658;9.068;2022-10-22T02:47:07;12.40;99.90
15596;DHT22;7898;48.658;9.068;2022-10-22T02:49:34;12.40;99.90
15596;DHT22;7898;48.658;9.068;2022-10-22T02:52:01;12.40;99.90
15596;DHT22;7898;48.658;9.068;2022-10-22T02:54:28;12.40;99.90
15596;DHT22;7898;48.658;9.068;2022-10-22T02:56:54;12.40;99.90
15596;DHT22;7898;48.658;9.068;2022-10-22T02:59:21;12.40;99.90
15596;DHT22;7898;48.658;9.068;2022-10-22T03:01:48;12.40;99.90
15596;DHT22;7898;48.658;9.068;2022-10-22T03:04:24;12.40;99.90
15596;DHT22;7898;48.658;9.068;2022-10-22T03:06:51;12.40;99.90
15596;DHT22;7898;48.658;9.068;2022-10-22T03:09:18;12.40;99.90
15596;DHT22;7898;48.658;9.068;2022-10-22T03:11:45;12.50;99.90
15596;DHT22;7898;48.658;9.068;2022-10-22T03:14:12;12.50;99.90
15596;DHT22;7898;48.658;9.068;2022-10-22T03:16:39;12.40;99.90
15596;DHT22;7898;48.658;9.068;2022-10-22T03:19:06;12.40;99.90
15596;DHT22;7898;48.658;9.068;2022-10-22T03:21:37;12.40;99.90
15596;DHT22;7898;48.658;9.068;2022-10-22T03:24:06;12.50;99.90
15596;DHT22;7898;48.658;9.068;2022-10-22T03:26:35;12.40;99.90
15596;DHT22;7898;48.658;9.068;2022-10-22T03:29:03;12.40;99.90
15596;DHT22;7898;48.658;9.068;2022-10-22T03:31:30;12.40;99.90
15596;DHT22;7898;48.658;9.068;2022-10-22T03:34:00;12.50;99.90
15596;DHT22;7898;48.658;9.068;2022-10-22T03:36:27;12.40;99.90
15596;DHT22;7898;48.658;9.068;2022-10-22T03:38:56;12.00;99.90
15596;DHT22;7898;48.658;9.068;2022-10-22T03:41:23;12.40;99.90
15596;DHT22;7898;48.658;9.068;2022-10-22T03:43:50;12.30;99.90
15596;DHT22;7898;48.658;9.068;2022-10-22T03:46:17;12.30;99.90
15596;DHT22;7898;48.658;9.068;2022-10-22T03:48:44;12.30;99.90
15596;DHT22;7898;48.658;9.068;2022-10-22T03:51:11;12.30;99.90
15596;DHT22;7898;48.658;9.068;2022-10-22T03:53:38;12.30;99.90
15596;DHT22;7898;48.658;9.068;2022-10-22T03:56:09;12.30;99.90
15596;DHT22;7898;48.658;9.068;2022-10-22T03:58:37;12.30;99.90
15596;DHT22;7898;48.658;9.068;2022-10-22T04:01:05;12.20;99.90
15596;DHT22;7898;48.658;9.068;2022-10-22T04:03:32;12.20;99.90
15596;DHT22;7898;48.658;9.068;2022-10-22T04:06:03;12.20;99.90
15596;DHT22;7898;48.658;9.068;2022-10-22T04:08:30;12.20;99.90
15596;DHT22;7898;48.658;9.068;2022-10-22T04:10:57;12.10;99.90
15596;DHT22;7898;48.658;9.068;2022-10-22T04:13:26;12.00;99.90
15596;DHT22;7898;48.658;9.068;2022-10-22T04:15:53;12.00;99.90
15596;DHT22;7898;48.658;9.068;2022-10-22T04:18:20;12.00;99.90
15596;DHT22;7898;48.658;9.068;2022-10-22T04:20:47;11.90;99.90
15596;DHT22;7898;48.658;9.068;2022-10-22T04:23:16;12.00;99.90
15596;DHT22;7898;48.658;9.068;2022-10-22T04:25:43;12.00;99.90
15596;DHT22;7898;48.658;9.068;2022-10-22T04:28:10;11.90;99.90
15596;DHT22;7898;48.658;9.068;2022-10-22T04:30:39;12.00;99.90
15596;DHT22;7898;48.658;9.068;2022-10-22T04:33:05;12.00;99.90
15596;DHT22;7898;48.658;9.068;2022-10-22T04:35:32;12.00;99.90
15596;DHT22;7898;48.658;9.068;2022-10-22T04:38:03;12.00;99.90
15596;DHT22;7898;48.658;9.068;2022-10-22T04:40:30;12.10;99.90
15596;DHT22;7898;48.658;9.068;2022-10-22T04:42:57;12.00;99.90
15596;DHT22;7898;48.658;9.068;2022-10-22T04:45:24;12.10;99.90
15596;DHT22;7898;48.658;9.068;2022-10-22T04:47:52;12.10;99.90
15596;DHT22;7898;48.658;9.068;2022-10-22T04:50:19;12.10;99.90
15596;DHT22;7898;48.658;9.068;2022-10-22T04:52:46;12.00;99.90
15596;DHT22;7898;48.658;9.068;2022-10-22T04:55:22;12.00;99.90
15596;DHT22;7898;48.658;9.068;2022-10-22T04:57:49;12.00;99.90
15596;DHT22;7898;48.658;9.068;2022-10-22T05:00:16;12.00;99.90
15596;DHT22;7898;48.658;9.068;2022-10-22T05:02:48;12.00;99.90
15596;DHT22;7898;48.658;9.068;2022-10-22T05:05:16;12.00;99.90
15596;DHT22;7898;48.658;9.068;2022-10-22T05:07:45;12.00;99.90
15596;DHT22;7898;48.658;9.068;2022-10-22T05:10:15;12.00;99.90
15596;DHT22;7898;48.658;9.068;2022-10-22T05:12:42;12.00;99.90
15596;DHT22;7898;48.658;9.068;2022-10-22T05:15:09;12.00;99.90
15596;DHT22;7898;48.658;9.068;2022-10-22T05:17:36;11.90;99.90
15596;DHT22;7898;48.658;9.068;2022-10-22T05:20:05;11.90;99.90
15596;DHT22;7898;48.658;9.068;2022-10-22T05:22:36;12.00;99.90
15596;DHT22;7898;48.658;9.068;2022-10-22T05:25:04;11.90;99.90
15596;DHT22;7898;48.658;9.068;2022-10-22T05:27:31;11.90;99.90
15596;DHT22;7898;48.658;9.068;2022-10-22T05:29:58;11.90;99.90
15596;DHT22;7898;48.658;9.068;2022-10-22T05:32:25;11.90;99.90
15596;DHT22;7898;48.658;9.068;2022-10-22T05:34:52;11.80;99.90
15596;DHT22;7898;48.658;9.068;2022-10-22T05:37:19;11.90;99.90
15596;DHT22;7898;48.658;9.068;2022-10-22T05:39:47;11.80;99.90
15596;DHT22;7898;48.658;9.068;2022-10-22T05:42:14;11.80;99.90
15596;DHT22;7898;48.658;9.068;2022-10-22T05:44:41;11.80;99.90
15596;DHT22;7898;48.658;9.068;2022-10-22T05:47:08;11.80;99.90
15596;DHT22;7898;48.658;9.068;2022-10-22T05:49:35;11.80;99.90
15596;DHT22;7898;48.658;9.068;2022-10-22T05:52:02;11.80;99.90
15596;DHT22;7898;48.658;9.068;2022-10-22T05:54:29;11.90;99.90
15596;DHT22;7898;48.658;9.068;2022-10-22T05:56:58;11.90;99.90
15596;DHT22;7898;48.658;9.068;2022-10-22T05:59:25;11.90;99.90
15596;DHT22;7898;48.658;9.068;2022-10-22T06:01:51;11.90;99.90
15596;DHT22;7898;48.658;9.068;2022-10-22T06:04:18;11.90;99.90
15596;DHT22;7898;48.658;9.068;2022-10-22T06:06:46;11.90;99.90
15596;DHT22;7898;48.658;9.068;2022-10-22T06:09:17;12.00;99.90
15596;DHT22;7898;48.658;9.068;2022-10-22T06:11:45;12.00;99.90
15596;DHT22;7898;48.658;9.068;2022-10-22T06:14:14;12.00;99.90
15596;DHT22;7898;48.658;9.068;2022-10-22T06:16:41;12.00;99.90
15596;DHT22;7898;48.658;9.068;2022-10-22T06:19:09;12.00;99.90
15596;DHT22;7898;48.658;9.068;2022-10-22T06:21:37;12.00;99.90
15596;DHT22;7898;48.658;9.068;2022-10-22T06:24:04;12.10;99.90
15596;DHT22;7898;48.658;9.068;2022-10-22T06:26:31;12.10;99.90
15596;DHT22;7898;48.658;9.068;2022-10-22T06:28:58;12.20;99.90
15596;DHT22;7898;48.658;9.068;2022-10-22T06:31:27;12.20;99.90
15596;DHT22;7898;48.658;9.068;2022-10-22T06:34:01;12.30;99.90
15596;DHT22;7898;48.658;9.068;2022-10-22T06:36:28;12.30;99.90
15596;DHT22;7898;48.658;9.068;2022-10-22T06:38:55;12.40;99.90
15596;DHT22;7898;48.658;9.068;2022-10-22T06:41:23;12.40;99.90
15596;DHT22;7898;48.658;9.068;2022-10-22T06:43:50;12.40;99.90
15596;DHT22;7898;48.658;9.068;2022-10-22T06:46:18;12.40;99.90
15596;DHT22;7898;48.658;9.068;2022-10-22T06:48:49;12.40;99.90
15596;DHT22;7898;48.658;9.068;2022-10-22T06:51:17;12.40;99.90
15596;DHT22;7898;48.658;9.068;2022-10-22T06:53:45;12.40;99.90
15596;DHT22;7898;48.658;9.068;2022-10-22T06:56:20;12.50;99.90
15596;DHT22;7898;48.658;9.068;2022-10-22T06:58:48;12.50;99.90
15596;DHT22;7898;48.658;9.068;2022-10-22T07:01:16;12.60;99.90
15596;DHT22;7898;48.658;9.068;2022-10-22T07:03:43;12.60;99.90
15596;DHT22;7898;48.658;9.068;2022-10-22T07:06:14;12.70;99.90
15596;DHT22;7898;48.658;9.068;2022-10-22T07:08:41;12.70;99.90
15596;DHT22;7898;48.658;9.068;2022-10-22T07:11:10;12.80;99.90
15596;DHT22;7898;48.658;9.068;2022-10-22T07:13:37;12.80;99.90
15596;DHT22;7898;48.658;9.068;2022-10-22T07:16:06;12.90;99.90
15596;DHT22;7898;48.658;9.068;2022-10-22T07:18:36;13.00;99.90
15596;DHT22;7898;48.658;9.068;2022-10-22T07:21:04;13.00;99.90
15596;DHT22;7898;48.658;9.068;2022-10-22T07:23:32;13.10;99.90
15596;DHT22;7898;48.658;9.068;2022-10-22T07:25:59;13.10;99.90
15596;DHT22;7898;48.658;9.068;2022-10-22T07:28:27;13.20;99.90
15596;DHT22;7898;48.658;9.068;2022-10-22T07:30:59;13.20;99.90
15596;DHT22;7898;48.658;9.068;2022-10-22T07:36:50;13.20;99.90
15596;DHT22;7898;48.658;9.068;2022-10-22T07:39:20;13.20;99.90
15596;DHT22;7898;48.658;9.068;2022-10-22T07:41:52;13.30;99.90
15596;DHT22;7898;48.658;9.068;2022-10-22T07:44:20;13.50;99.90
15596;DHT22;7898;48.658;9.068;2022-10-22T07:46:47;13.50;99.90
15596;DHT22;7898;48.658;9.068;2022-10-22T07:49:14;13.60;99.90
15596;DHT22;7898;48.658;9.068;2022-10-22T07:51:42;13.60;99.90
15596;DHT22;7898;48.658;9.068;2022-10-22T07:54:19;13.70;99.90
15596;DHT22;7898;48.658;9.068;2022-10-22T07:56:49;13.70;99.90
15596;DHT22;7898;48.658;9.068;2022-10-22T07:59:21;13.90;99.90
15596;DHT22;7898;48.658;9.068;2022-10-22T08:02:01;14.30;99.90
15596;DHT22;7898;48.658;9.068;2022-10-22T08:04:48;13.40;99.90
15596;DHT22;7898;48.658;9.068;2022-10-22T08:07:16;14.20;99.90
15596;DHT22;7898;48.658;9.068;2022-10-22T08:09:45;14.40;99.90
15596;DHT22;7898;48.658;9.068;2022-10-22T08:12:13;14.80;99.90
15596;DHT22;7898;48.658;9.068;2022-10-22T08:14:40;15.20;99.90
15596;DHT22;7898;48.658;9.068;2022-10-22T08:17:07;15.40;99.90
15596;DHT22;7898;48.658;9.068;2022-10-22T08:19:39;15.50;99.90
15596;DHT22;7898;48.658;9.068;2022-10-22T08:22:41;15.80;99.90
15596;DHT22;7898;48.658;9.068;2022-10-22T08:29:38;18.20;99.90
15596;DHT22;7898;48.658;9.068;2022-10-22T08:35:09;20.10;99.90
15596;DHT22;7898;48.658;9.068;2022-10-22T08:39:14;20.80;99.90
15596;DHT22;7898;48.658;9.068;2022-10-22T08:41:53;20.70;99.90
15596;DHT22;7898;48.658;9.068;2022-10-22T08:45:02;20.60;99.90
15596;DHT22;7898;48.658;9.068;2022-10-22T08:48:43;20.80;99.90
15596;DHT22;7898;48.658;9.068;2022-10-22T08:54:50;20.90;99.90
15596;DHT22;7898;48.658;9.068;2022-10-22T08:57:44;21.30;99.90
15596;DHT22;7898;48.658;9.068;2022-10-22T09:00:27;21.30;99.90
15596;DHT22;7898;48.658;9.068;2022-10-22T09:03:20;21.40;99.90
15596;DHT22;7898;48.658;9.068;2022-10-22T09:06:01;21.40;99.90
15596;DHT22;7898;48.658;9.068;2022-10-22T09:08:29;21.50;99.90
15596;DHT22;7898;48.658;9.068;2022-10-22T09:11:01;21.50;99.90
15596;DHT22;7898;48.658;9.068;2022-10-22T09:13:40;21.50;99.90
15596;DHT22;7898;48.658;9.068;2022-10-22T09:16:31;21.80;99.90
15596;DHT22;7898;48.658;9.068;2022-10-22T09:19:14;21.70;99.90
15596;DHT22;7898;48.658;9.068;2022-10-22T09:21:54;22.00;99.90
15596;DHT22;7898;48.658;9.068;2022-10-22T09:24:33;22.10;99.90
15596;DHT22;7898;48.658;9.068;2022-10-22T09:27:10;21.20;99.90
15596;DHT22;7898;48.658;9.068;2022-10-22T09:29:48;22.40;99.90
15596;DHT22;7898;48.658;9.068;2022-10-22T09:32:19;22.60;99.90
15596;DHT22;7898;48.658;9.068;2022-10-22T09:34:49;22.50;99.90
15596;DHT22;7898;48.658;9.068;2022-10-22T09:37:17;22.30;99.90
15596;DHT22;7898;48.658;9.068;2022-10-22T09:39:46;21.90;99.90
15596;DHT22;7898;48.658;9.068;2022-10-22T09:42:16;21.70;99.90
15596;DHT22;7898;48.658;9.068;2022-10-22T09:44:43;21.70;99.90
15596;DHT22;7898;48.658;9.068;2022-10-22T09:47:30;21.70;99.90
15596;DHT22;7898;48.658;9.068;2022-10-22T09:50:21;21.40;99.90
15596;DHT22;7898;48.658;9.068;2022-10-22T09:52:58;21.20;99.90
15596;DHT22;7898;48.658;9.068;2022-10-22T09:55:25;21.10;99.90
15596;DHT22;7898;48.658;9.068;2022-10-22T09:57:53;21.20;99.90
15596;DHT22;7898;48.658;9.068;2022-10-22T10:00:24;21.20;99.90
15596;DHT22;7898;48.658;9.068;2022-10-22T10:02:57;21.10;99.90
15596;DHT22;7898;48.658;9.068;2022-10-22T10:05:27;21.00;99.90
15596;DHT22;7898;48.658;9.068;2022-10-22T10:07:57;21.00;99.90
15596;DHT22;7898;48.658;9.068;2022-10-22T10:10:34;21.00;99.90
15596;DHT22;7898;48.658;9.068;2022-10-22T10:16:05;20.80;99.90
15596;DHT22;7898;48.658;9.068;2022-10-22T10:18:46;20.80;99.90
15596;DHT22;7898;48.658;9.068;2022-10-22T10:21:21;20.80;99.90
15596;DHT22;7898;48.658;9.068;2022-10-22T10:23:56;21.00;99.90
15596;DHT22;7898;48.658;9.068;2022-10-22T10:26:32;21.10;99.90
15596;DHT22;7898;48.658;9.068;2022-10-22T10:29:13;21.20;99.90
15596;DHT22;7898;48.658;9.068;2022-10-22T10:31:54;21.20;99.90
15596;DHT22;7898;48.658;9.068;2022-10-22T10:34:32;21.00;99.90
15596;DHT22;7898;48.658;9.068;2022-10-22T10:37:05;21.10;99.90
15596;DHT22;7898;48.658;9.068;2022-10-22T10:39:50;21.20;99.90
15596;DHT22;7898;48.658;9.068;2022-10-22T10:42:26;21.30;99.90
15596;DHT22;7898;48.658;9.068;2022-10-22T10:45:02;21.30;99.90
15596;DHT22;7898;48.658;9.068;2022-10-22T10:48:00;21.50;99.90
15596;DHT22;7898;48.658;9.068;2022-10-22T10:50:40;21.60;99.90
15596;DHT22;7898;48.658;9.068;2022-10-22T10:53:16;21.50;99.90
15596;DHT22;7898;48.658;9.068;2022-10-22T10:55:52;21.50;99.90
15596;DHT22;7898;48.658;9.068;2022-10-22T10:58:28;21.30;99.90
15596;DHT22;7898;48.658;9.068;2022-10-22T11:00:59;21.20;99.90
15596;DHT22;7898;48.658;9.068;2022-10-22T11:06:22;20.80;99.90
15596;DHT22;7898;48.658;9.068;2022-10-22T11:08:53;20.80;99.90
15596;DHT22;7898;48.658;9.068;2022-10-22T11:11:27;20.80;99.90
15596;DHT22;7898;48.658;9.068;2022-10-22T11:14:02;20.80;99.90
15596;DHT22;7898;48.658;9.068;2022-10-22T11:16:34;21.00;99.90
15596;DHT22;7898;48.658;9.068;2022-10-22T11:19:06;21.20;99.90
15596;DHT22;7898;48.658;9.068;2022-10-22T11:21:39;21.30;99.90
15596;DHT22;7898;48.658;9.068;2022-10-22T11:24:15;21.50;99.90
15596;DHT22;7898;48.658;9.068;2022-10-22T11:26:50;21.60;99.90
15596;DHT22;7898;48.658;9.068;2022-10-22T11:29:24;21.70;99.90
15596;DHT22;7898;48.658;9.068;2022-10-22T11:31:54;22.30;99.90
15596;DHT22;7898;48.658;9.068;2022-10-22T11:34:25;21.90;99.90
15596;DHT22;7898;48.658;9.068;2022-10-22T11:36:55;22.00;99.90
15596;DHT22;7898;48.658;9.068;2022-10-22T11:39:35;22.20;99.90
15596;DHT22;7898;48.658;9.068;2022-10-22T11:42:05;22.20;99.90
15596;DHT22;7898;48.658;9.068;2022-10-22T11:44:45;22.10;99.90
15596;DHT22;7898;48.658;9.068;2022-10-22T11:47:18;21.80;99.90
15596;DHT22;7898;48.658;9.068;2022-10-22T11:49:55;21.60;99.90
15596;DHT22;7898;48.658;9.068;2022-10-22T11:52:36;21.70;99.90
15596;DHT22;7898;48.658;9.068;2022-10-22T11:55:30;21.60;99.90
15596;DHT22;7898;48.658;9.068;2022-10-22T11:57:59;21.50;99.90
15596;DHT22;7898;48.658;9.068;2022-10-22T12:00:40;21.60;99.90
15596;DHT22;7898;48.658;9.068;2022-10-22T12:03:17;21.70;99.90
15596;DHT22;7898;48.658;9.068;2022-10-22T12:05:45;21.70;99.90
15596;DHT22;7898;48.658;9.068;2022-10-22T12:08:31;21.40;99.90
15596;DHT22;7898;48.658;9.068;2022-10-22T12:11:14;21.00;99.90
15596;DHT22;7898;48.658;9.068;2022-10-22T12:13:57;20.70;99.90
15596;DHT22;7898;48.658;9.068;2022-10-22T12:16:34;20.30;99.90
15596;DHT22;7898;48.658;9.068;2022-10-22T12:19:04;20.00;99.90
15596;DHT22;7898;48.658;9.068;2022-10-22T12:21:33;19.80;99.90
15596;DHT22;7898;48.658;9.068;2022-10-22T12:24:03;20.00;99.90
15596;DHT22;7898;48.658;9.068;2022-10-22T12:26:32;20.40;99.90
15596;DHT22;7898;48.658;9.068;2022-10-22T12:29:02;20.90;99.90
15596;DHT22;7898;48.658;9.068;2022-10-22T12:31:35;21.40;99.90
15596;DHT22;7898;48.658;9.068;2022-10-22T12:34:03;21.80;99.90
15596;DHT22;7898;48.658;9.068;2022-10-22T12:36:32;22.30;99.90
15596;DHT22;7898;48.658;9.068;2022-10-22T12:39:02;22.50;99.90
15596;DHT22;7898;48.658;9.068;2022-10-22T12:41:30;22.70;99.90
15596;DHT22;7898;48.658;9.068;2022-10-22T12:43:58;22.70;99.90
15596;DHT22;7898;48.658;9.068;2022-10-22T12:46:26;22.90;99.90
15596;DHT22;7898;48.658;9.068;2022-10-22T12:48:54;22.80;99.90
15596;DHT22;7898;48.658;9.068;2022-10-22T12:51:21;23.00;99.90
15596;DHT22;7898;48.658;9.068;2022-10-22T12:53:51;22.90;99.90
15596;DHT22;7898;48.658;9.068;2022-10-22T12:56:22;23.20;99.90
15596;DHT22;7898;48.658;9.068;2022-10-22T12:58:55;23.30;99.90
15596;DHT22;7898;48.658;9.068;2022-10-22T13:01:24;22.90;99.90
15596;DHT22;7898;48.658;9.068;2022-10-22T13:04:04;23.00;99.90
15596;DHT22;7898;48.658;9.068;2022-10-22T13:06:33;23.20;99.90
15596;DHT22;7898;48.658;9.068;2022-10-22T13:09:14;23.20;99.90
15596;DHT22;7898;48.658;9.068;2022-10-22T13:11:49;23.20;99.90
15596;DHT22;7898;48.658;9.068;2022-10-22T13:14:26;23.30;99.90
15596;DHT22;7898;48.658;9.068;2022-10-22T13:17:05;23.70;99.90
15596;DHT22;7898;48.658;9.068;2022-10-22T13:19:38;23.90;99.90
15596;DHT22;7898;48.658;9.068;2022-10-22T13:22:23;24.20;99.90
15596;DHT22;7898;48.658;9.068;2022-10-22T13:24:50;24.60;99.90
15596;DHT22;7898;48.658;9.068;2022-10-22T13:27:19;24.90;99.90
15596;DHT22;7898;48.658;9.068;2022-10-22T13:29:46;24.90;99.90
15596;DHT22;7898;48.658;9.068;2022-10-22T13:32:26;25.10;99.90
15596;DHT22;7898;48.658;9.068;2022-10-22T13:34:56;24.90;99.90
15596;DHT22;7898;48.658;9.068;2022-10-22T13:37:23;24.00;99.90
15596;DHT22;7898;48.658;9.068;2022-10-22T13:39:50;24.60;99.90
15596;DHT22;7898;48.658;9.068;2022-10-22T13:42:19;24.80;99.90
15596;DHT22;7898;48.658;9.068;2022-10-22T13:44:46;25.00;99.90
15596;DHT22;7898;48.658;9.068;2022-10-22T13:47:23;25.70;99.90
15596;DHT22;7898;48.658;9.068;2022-10-22T13:49:50;25.80;99.90
15596;DHT22;7898;48.658;9.068;2022-10-22T13:52:27;26.10;99.90
15596;DHT22;7898;48.658;9.068;2022-10-22T13:54:54;26.50;99.90
15596;DHT22;7898;48.658;9.068;2022-10-22T13:57:22;26.70;99.90
15596;DHT22;7898;48.658;9.068;2022-10-22T13:59:49;26.90;99.90
15596;DHT22;7898;48.658;9.068;2022-10-22T14:02:17;27.10;99.90
15596;DHT22;7898;48.658;9.068;2022-10-22T14:04:45;27.10;99.90
15596;DHT22;7898;48.658;9.068;2022-10-22T14:07:13;27.10;99.90
15596;DHT22;7898;48.658;9.068;2022-10-22T14:09:41;27.30;99.90
15596;DHT22;7898;48.658;9.068;2022-10-22T14:12:18;27.40;99.90
15596;DHT22;7898;48.658;9.068;2022-10-22T14:14:46;27.50;99.90
15596;DHT22;7898;48.658;9.068;2022-10-22T14:17:14;27.80;99.90
15596;DHT22;7898;48.658;9.068;2022-10-22T14:19:43;28.00;99.90
15596;DHT22;7898;48.658;9.068;2022-10-22T14:22:15;28.40;99.80
15596;DHT22;7898;48.658;9.068;2022-10-22T14:24:42;28.10;99.60
15596;DHT22;7898;48.658;9.068;2022-10-22T14:27:13;27.80;99.60
15596;DHT22;7898;48.658;9.068;2022-10-22T14:29:41;28.30;99.60
15596;DHT22;7898;48.658;9.068;2022-10-22T14:32:17;28.50;98.90
15596;DHT22;7898;48.658;9.068;2022-10-22T14:34:45;28.20;98.60
15596;DHT22;7898;48.658;9.068;2022-10-22T14:37:17;27.90;98.70
15596;DHT22;7898;48.658;9.068;2022-10-22T14:39:44;27.80;98.70
15596;DHT22;7898;48.658;9.068;2022-10-22T14:42:17;27.70;99.30
15596;DHT22;7898;48.658;9.068;2022-10-22T14:44:45;27.90;98.70
15596;DHT22;7898;48.658;9.068;2022-10-22T14:47:12;28.30;99.10
15596;DHT22;7898;48.658;9.068;2022-10-22T14:49:40;28.50;98.00
15596;DHT22;7898;48.658;9.068;2022-10-22T14:52:07;28.50;98.10
15596;DHT22;7898;48.658;9.068;2022-10-22T14:54:34;27.90;97.60
15596;DHT22;7898;48.658;9.068;2022-10-22T14:57:02;27.90;97.90
15596;DHT22;7898;48.658;9.068;2022-10-22T14:59:29;27.60;98.70
15596;DHT22;7898;48.658;9.068;2022-10-22T15:01:56;27.40;98.40
15596;DHT22;7898;48.658;9.068;2022-10-22T15:04:23;26.70;99.30
15596;DHT22;7898;48.658;9.068;2022-10-22T15:06:53;25.60;99.90
15596;DHT22;7898;48.658;9.068;2022-10-22T15:09:22;24.60;99.90
15596;DHT22;7898;48.658;9.068;2022-10-22T15:11:49;23.70;99.90
15596;DHT22;7898;48.658;9.068;2022-10-22T15:14:16;23.00;99.90
15596;DHT22;7898;48.658;9.068;2022-10-22T15:16:43;22.40;99.90
15596;DHT22;7898;48.658;9.068;2022-10-22T15:19:10;21.80;99.90
15596;DHT22;7898;48.658;9.068;2022-10-22T15:21:37;21.30;99.90
15596;DHT22;7898;48.658;9.068;2022-10-22T15:24:06;20.90;99.90
15596;DHT22;7898;48.658;9.068;2022-10-22T15:26:33;20.70;99.90
15596;DHT22;7898;48.658;9.068;2022-10-22T15:29:01;20.40;99.90
15596;DHT22;7898;48.658;9.068;2022-10-22T15:31:44;20.20;99.90
15596;DHT22;7898;48.658;9.068;2022-10-22T15:34:11;20.00;99.90
15596;DHT22;7898;48.658;9.068;2022-10-22T15:36:38;19.80;99.90
15596;DHT22;7898;48.658;9.068;2022-10-22T15:39:07;19.60;99.90
15596;DHT22;7898;48.658;9.068;2022-10-22T15:41:35;19.50;99.90
15596;DHT22;7898;48.658;9.068;2022-10-22T15:44:03;19.30;99.90
15596;DHT22;7898;48.658;9.068;2022-10-22T15:46:31;19.10;99.90
15596;DHT22;7898;48.658;9.068;2022-10-22T15:48:58;19.00;99.90
15596;DHT22;7898;48.658;9.068;2022-10-22T15:51:26;19.00;99.90
15596;DHT22;7898;48.658;9.068;2022-10-22T15:53:54;18.80;99.90
15596;DHT22;7898;48.658;9.068;2022-10-22T15:56:24;18.70;99.90
15596;DHT22;7898;48.658;9.068;2022-10-22T15:58:52;18.60;99.90
15596;DHT22;7898;48.658;9.068;2022-10-22T16:01:20;18.30;99.90
15596;DHT22;7898;48.658;9.068;2022-10-22T16:03:48;18.10;99.90
15596;DHT22;7898;48.658;9.068;2022-10-22T16:06:17;17.90;99.90
15596;DHT22;7898;48.658;9.068;2022-10-22T16:08:44;17.60;99.90
15596;DHT22;7898;48.658;9.068;2022-10-22T16:11:11;17.60;99.90
15596;DHT22;7898;48.658;9.068;2022-10-22T16:13:39;17.50;99.90
15596;DHT22;7898;48.658;9.068;2022-10-22T16:16:06;17.40;99.90
15596;DHT22;7898;48.658;9.068;2022-10-22T16:18:33;17.20;99.90
15596;DHT22;7898;48.658;9.068;2022-10-22T16:21:00;16.90;99.90
15596;DHT22;7898;48.658;9.068;2022-10-22T16:23:28;16.60;99.90
15596;DHT22;7898;48.658;9.068;2022-10-22T16:25:55;16.30;99.90
15596;DHT22;7898;48.658;9.068;2022-10-22T16:28:22;16.10;99.90
15596;DHT22;7898;48.658;9.068;2022-10-22T16:30:50;15.90;99.90